createdAt,value
2022-10-25T00:01:38.801Z,10.07
2022-10-25T00:04:07.586Z,9.97
2022-10-25T00:06:36.236Z,9.97
2022-10-25T00:09:19.864Z,9.97
2022-10-25T00:11:48.429Z,9.96
2022-10-25T00:14:18.836Z,9.93
2022-10-25T00:16:47.656Z,9.97
2022-10-25T00:19:16.335Z,10.05
2022-10-25T00:21:45.023Z,9.98
2022-10-25T00:24:14.392Z,9.89
2022-10-25T00:26:45.001Z,9.92
2022-10-25T00:29:14.015Z,9.95
2022-10-25T00:31:42.689Z,9.98
2022-10-25T00:34:11.365Z,10.02
2022-10-25T00:36:45.371Z,10.01
2022-10-25T00:39:15.514Z,9.93
2022-10-25T00:41:44.158Z,9.97
2022-10-25T00:44:38.440Z,9.94
2022-10-25T00:47:21.837Z,9.82
2022-10-25T00:49:56.051Z,9.69
2022-10-25T00:52:28.731Z,9.71
2022-10-25T00:54:59.584Z,9.78
2022-10-25T00:57:39.993Z,9.67
2022-10-25T01:00:09.718Z,9.67
2022-10-25T01:02:38.871Z,9.58
2022-10-25T01:05:09.299Z,9.57
2022-10-25T01:07:38.201Z,9.62
2022-10-25T01:10:07.675Z,9.65
2022-10-25T01:12:37.824Z,9.55
2022-10-25T01:15:07.390Z,9.54
2022-10-25T01:17:58.860Z,9.45
2022-10-25T01:20:47.345Z,9.46
2022-10-25T01:23:24.713Z,9.57
2022-10-25T01:26:13.104Z,9.58
2022-10-25T01:28:50.478Z,9.49
2022-10-25T01:31:38.798Z,9.38
2022-10-25T01:34:19.528Z,9.41
2022-10-25T01:36:53.634Z,9.47
2022-10-25T01:39:28.207Z,9.41
2022-10-25T01:42:05.476Z,9.40
2022-10-25T01:45:06.148Z,9.31
2022-10-25T01:47:40.580Z,9.23
2022-10-25T01:50:14.942Z,9.26
2022-10-25T01:52:43.564Z,9.19
2022-10-25T01:55:14.996Z,9.25
2022-10-25T01:57:55.332Z,9.35
2022-10-25T02:00:25.799Z,9.25
2022-10-25T02:03:24.224Z,9.21
2022-10-25T02:06:19.761Z,9.14
2022-10-25T02:09:00.029Z,9.05
2022-10-25T02:11:31.742Z,9.09
2022-10-25T02:14:23.703Z,9.08
2022-10-25T02:17:17.800Z,9.09
2022-10-25T02:19:49.460Z,9.12
2022-10-25T02:22:20.805Z,8.97
2022-10-25T02:24:51.391Z,9.03
2022-10-25T02:27:23.213Z,8.91
2022-10-25T02:29:53.564Z,8.98
2022-10-25T02:32:22.870Z,8.95
2022-10-25T02:34:52.120Z,8.86
2022-10-25T02:37:20.902Z,8.91
2022-10-25T02:39:51.421Z,8.96
2022-10-25T02:42:22.782Z,8.95
2022-10-25T02:44:51.576Z,8.89
2022-10-25T02:47:24.310Z,8.89
2022-10-25T02:50:33.595Z,8.89
2022-10-25T02:53:04.257Z,8.87
2022-10-25T02:56:18.722Z,8.78
2022-10-25T02:58:49.291Z,8.76
2022-10-25T03:01:23.356Z,8.76
2022-10-25T03:03:52.694Z,8.78
2022-10-25T03:06:21.342Z,8.82
2022-10-25T03:09:13.638Z,8.73
2022-10-25T03:11:42.399Z,8.65
2022-10-25T03:14:16.849Z,8.66
2022-10-25T03:16:45.432Z,8.72
2022-10-25T03:19:14.480Z,8.64
2022-10-25T03:21:43.248Z,8.60
2022-10-25T03:24:11.967Z,8.49
2022-10-25T03:26:40.612Z,8.49
2022-10-25T03:29:09.232Z,8.46
2022-10-25T03:31:38.001Z,8.55
2022-10-25T03:34:06.567Z,8.50
2022-10-25T03:36:35.265Z,8.53
2022-10-25T03:39:06.587Z,8.58
2022-10-25T03:41:35.118Z,8.57
2022-10-25T03:44:03.785Z,8.59
2022-10-25T03:46:35.530Z,8.59
2022-10-25T03:49:04.189Z,8.44
2022-10-25T03:51:32.911Z,8.35
2022-10-25T03:54:04.535Z,8.29
2022-10-25T03:56:33.137Z,8.30
2022-10-25T03:59:01.824Z,8.25
2022-10-25T04:01:30.756Z,8.26
2022-10-25T04:03:59.375Z,8.27
2022-10-25T04:06:28.080Z,8.35
2022-10-25T04:08:58.719Z,8.42
2022-10-25T04:11:27.331Z,8.40
2022-10-25T04:13:55.906Z,8.28
2022-10-25T04:16:25.709Z,8.35
2022-10-25T04:18:58.068Z,8.30
2022-10-25T04:21:27.433Z,8.29
2022-10-25T04:23:58.253Z,8.26
2022-10-25T04:26:26.483Z,8.22
2022-10-25T04:28:56.931Z,8.27
2022-10-25T04:31:25.759Z,8.21
2022-10-25T04:33:56.124Z,8.23
2022-10-25T04:36:25.264Z,8.18
2022-10-25T04:38:54.702Z,8.12
2022-10-25T04:41:23.921Z,8.12
2022-10-25T04:43:53.197Z,8.15
2022-10-25T04:46:22.164Z,8.18
2022-10-25T04:48:52.431Z,8.21
2022-10-25T04:51:22.759Z,8.29
2022-10-25T04:53:54.350Z,8.30
2022-10-25T04:56:23.786Z,8.25
2022-10-25T04:58:52.529Z,8.33
2022-10-25T05:01:21.256Z,8.25
2022-10-25T05:03:50.079Z,8.27
2022-10-25T05:06:25.478Z,8.33
2022-10-25T05:08:54.865Z,8.36
2022-10-25T05:11:25.511Z,8.35
2022-10-25T05:14:01.507Z,8.50
2022-10-25T05:16:31.933Z,8.54
2022-10-25T05:19:03.684Z,8.52
2022-10-25T05:21:32.496Z,8.60
2022-10-25T05:24:02.667Z,8.66
2022-10-25T05:26:33.750Z,8.70
2022-10-25T05:29:04.571Z,8.72
2022-10-25T05:31:32.976Z,8.90
2022-10-25T05:34:05.411Z,8.96
2022-10-25T05:36:34.334Z,9.03
2022-10-25T05:39:32.441Z,9.04
2022-10-25T05:42:06.814Z,9.03
2022-10-25T05:44:35.455Z,9.12
2022-10-25T05:47:06.167Z,9.21
2022-10-25T05:49:40.488Z,9.30
2022-10-25T05:52:09.906Z,8.89
2022-10-25T05:54:38.585Z,9.38
2022-10-25T05:57:07.448Z,9.40
2022-10-25T05:59:36.277Z,9.37
2022-10-25T06:02:05.180Z,9.36
2022-10-25T06:04:36.935Z,9.46
2022-10-25T06:07:07.185Z,9.55
2022-10-25T06:09:40.271Z,9.63
2022-10-25T06:12:09.695Z,9.73
2022-10-25T06:14:38.602Z,9.79
2022-10-25T06:17:10.466Z,9.98
2022-10-25T06:19:39.397Z,10.24
2022-10-25T06:22:11.315Z,10.38
2022-10-25T06:24:42.228Z,10.59
2022-10-25T06:27:11.016Z,10.75
2022-10-25T06:29:46.272Z,10.95
2022-10-25T06:32:18.010Z,11.13
2022-10-25T06:34:52.780Z,11.12
2022-10-25T06:37:29.481Z,11.38
2022-10-25T06:40:04.432Z,11.49
2022-10-25T06:42:46.091Z,11.74
2022-10-25T06:45:21.885Z,11.86
2022-10-25T06:47:57.269Z,12.04
2022-10-25T06:50:27.587Z,12.05
2022-10-25T06:52:56.333Z,12.09
2022-10-25T06:55:25.028Z,12.29
2022-10-25T06:57:56.730Z,12.14
2022-10-25T07:00:30.539Z,12.19
2022-10-25T07:03:00.749Z,12.08
2022-10-25T07:05:29.636Z,12.25
2022-10-25T07:08:00.159Z,12.26
2022-10-25T07:10:31.003Z,12.32
2022-10-25T07:12:59.721Z,12.42
2022-10-25T07:15:28.356Z,12.39
2022-10-25T07:17:57.118Z,12.18
2022-10-25T07:20:25.639Z,12.54
2022-10-25T07:23:00.145Z,12.81
2022-10-25T07:25:29.347Z,12.43
2022-10-25T07:27:58.486Z,13.07
2022-10-25T07:30:27.456Z,13.15
2022-10-25T07:32:56.241Z,13.25
2022-10-25T07:35:27.260Z,13.50
2022-10-25T07:37:55.864Z,13.76
2022-10-25T07:40:24.482Z,13.75
2022-10-25T07:42:53.163Z,13.79
2022-10-25T07:45:24.405Z,13.53
2022-10-25T07:47:53.271Z,14.29
2022-10-25T07:50:21.889Z,14.47
2022-10-25T07:52:50.894Z,14.64
2022-10-25T07:55:19.645Z,14.83
2022-10-25T07:57:48.632Z,15.02
2022-10-25T08:00:17.869Z,15.29
2022-10-25T08:02:46.597Z,15.57
2022-10-25T08:05:16.798Z,15.59
2022-10-25T08:07:47.258Z,15.55
2022-10-25T08:10:17.475Z,15.51
2022-10-25T08:12:48.015Z,15.86
2022-10-25T08:15:18.304Z,16.06
2022-10-25T08:17:47.271Z,16.02
2022-10-25T08:20:16.082Z,16.26
2022-10-25T08:22:44.754Z,16.35
2022-10-25T08:25:16.234Z,16.21
2022-10-25T08:27:45.163Z,16.40
2022-10-25T08:30:13.948Z,16.34
2022-10-25T08:32:42.639Z,16.53
2022-10-25T08:35:14.493Z,16.78
2022-10-25T08:37:43.458Z,16.77
2022-10-25T08:40:24.724Z,17.01
2022-10-25T08:43:08.459Z,16.75
2022-10-25T08:45:49.269Z,16.79
2022-10-25T08:48:21.046Z,17.04
2022-10-25T08:50:52.648Z,17.32
2022-10-25T08:53:33.197Z,17.43
2022-10-25T08:56:16.160Z,17.55
2022-10-25T08:58:39.665Z,17.53
2022-10-25T09:01:23.480Z,17.64
2022-10-25T09:03:52.333Z,17.93
2022-10-25T09:06:43.813Z,17.80
2022-10-25T09:09:18.801Z,17.75
2022-10-25T09:12:08.463Z,18.01
2022-10-25T09:14:57.559Z,18.25
2022-10-25T09:17:29.212Z,18.42
2022-10-25T09:20:21.676Z,18.29
2022-10-25T09:23:09.603Z,18.67
2022-10-25T09:26:12.026Z,18.61
2022-10-25T09:29:08.742Z,18.27
2022-10-25T09:31:45.104Z,18.59
2022-10-25T09:34:16.051Z,18.74
2022-10-25T09:36:47.801Z,18.85
2022-10-25T09:39:28.095Z,18.64
2022-10-25T09:41:59.615Z,18.92
2022-10-25T09:44:49.314Z,19.19
2022-10-25T09:47:40.427Z,19.27
2022-10-25T09:50:14.582Z,19.34
2022-10-25T09:53:16.447Z,19.24
2022-10-25T09:55:59.333Z,19.32
2022-10-25T09:58:35.391Z,19.46
2022-10-25T10:01:08.851Z,19.45
2022-10-25T10:03:38.259Z,19.37
2022-10-25T10:06:18.997Z,19.14
2022-10-25T10:08:53.492Z,19.17
2022-10-25T10:11:23.017Z,19.51
2022-10-25T10:13:57.456Z,19.59
2022-10-25T10:16:30.600Z,19.65
2022-10-25T10:19:21.128Z,19.59
2022-10-25T10:21:59.185Z,19.67
2022-10-25T10:24:33.626Z,19.66
2022-10-25T10:27:05.004Z,19.81
2022-10-25T10:29:37.019Z,19.83
2022-10-25T10:32:13.648Z,19.89
2022-10-25T10:34:48.971Z,19.92
2022-10-25T10:37:20.354Z,19.99
2022-10-25T10:40:01.353Z,19.92
2022-10-25T10:42:38.050Z,19.79
2022-10-25T10:45:15.747Z,19.91
2022-10-25T10:47:47.390Z,19.99
2022-10-25T10:50:25.804Z,20.02
2022-10-25T10:53:06.879Z,20.05
2022-10-25T10:55:50.790Z,20.06
2022-10-25T10:58:25.631Z,20.16
2022-10-25T11:00:57.224Z,20.29
2022-10-25T11:03:48.717Z,20.32
2022-10-25T11:06:19.799Z,20.36
2022-10-25T11:08:49.977Z,20.52
2022-10-25T11:11:23.882Z,20.57
2022-10-25T11:13:59.943Z,20.65
2022-10-25T11:16:53.901Z,20.82
2022-10-25T11:19:39.302Z,20.95
2022-10-25T11:22:23.093Z,21.04
2022-10-25T11:25:59.693Z,21.09
2022-10-25T11:28:37.261Z,21.09
2022-10-25T11:31:17.882Z,21.31
2022-10-25T11:34:09.958Z,21.34
2022-10-25T11:36:57.404Z,21.50
2022-10-25T11:39:56.108Z,21.65
2022-10-25T11:42:39.925Z,21.74
2022-10-25T11:45:20.312Z,21.72
2022-10-25T11:48:16.106Z,21.84
2022-10-25T11:51:02.813Z,21.87
2022-10-25T11:53:55.478Z,22.03
2022-10-25T11:56:54.286Z,22.04
2022-10-25T11:59:30.273Z,22.27
2022-10-25T12:02:35.378Z,22.35
2022-10-25T12:05:23.360Z,22.40
2022-10-25T12:14:02.287Z,22.18
2022-10-25T12:16:51.278Z,22.69
2022-10-25T12:26:03.358Z,22.68
2022-10-25T12:28:35.457Z,22.67
2022-10-25T12:31:09.679Z,22.76
2022-10-25T12:44:10.368Z,22.51
2022-10-25T12:46:44.856Z,22.67
2022-10-25T12:49:50.631Z,22.74
2022-10-25T12:52:31.047Z,22.78
2022-10-25T12:55:17.395Z,22.77
2022-10-25T12:58:10.961Z,22.89
2022-10-25T13:00:50.922Z,22.90
2022-10-25T13:03:30.137Z,23.08
2022-10-25T13:06:33.320Z,23.19
2022-10-25T13:09:10.997Z,23.15
2022-10-25T13:11:48.488Z,23.27
2022-10-25T13:14:31.857Z,23.25
2022-10-25T13:17:28.105Z,23.35
2022-10-25T13:20:16.245Z,23.35
2022-10-25T13:22:54.158Z,23.31
2022-10-25T13:25:39.500Z,23.37
2022-10-25T13:28:22.789Z,23.44
2022-10-25T13:30:59.465Z,22.91
2022-10-25T13:34:01.461Z,23.30
2022-10-25T13:36:54.923Z,23.28
2022-10-25T13:39:41.560Z,23.31
2022-10-25T13:42:31.783Z,23.30
2022-10-25T13:45:10.060Z,23.31
2022-10-25T13:47:48.347Z,23.34
2022-10-25T13:50:22.864Z,23.30
2022-10-25T13:53:22.727Z,23.30
2022-10-25T13:56:10.353Z,22.77
2022-10-25T13:58:58.651Z,22.96
2022-10-25T14:05:01.328Z,22.97
2022-10-25T14:07:47.955Z,22.94
2022-10-25T14:11:06.903Z,22.93
2022-10-25T14:13:13.498Z,22.81
2022-10-25T14:15:50.939Z,22.90
2022-10-25T14:18:28.916Z,22.89
2022-10-25T14:21:07.564Z,22.96
2022-10-25T14:23:48.538Z,22.89
2022-10-25T14:26:13.768Z,22.80
2022-10-25T14:28:45.691Z,22.80
2022-10-25T14:31:17.447Z,22.52
2022-10-25T14:33:54.711Z,22.42
2022-10-25T14:36:36.567Z,22.34
2022-10-25T14:39:07.785Z,22.19
2022-10-25T14:41:45.501Z,22.22
2022-10-25T14:44:31.581Z,22.31
2022-10-25T14:47:02.554Z,22.37
2022-10-25T14:49:41.045Z,22.25
2022-10-25T14:52:12.579Z,22.10
2022-10-25T14:54:59.367Z,22.10
2022-10-25T14:57:33.458Z,22.29
2022-10-25T15:00:04.763Z,22.29
2022-10-25T15:05:55.427Z,22.28
2022-10-25T15:08:27.155Z,22.23
2022-10-25T15:11:08.090Z,22.13
2022-10-25T15:13:42.043Z,22.09
2022-10-25T15:16:38.597Z,21.96
2022-10-25T15:19:15.484Z,21.73
2022-10-25T15:21:48.379Z,21.50
2022-10-25T15:24:22.803Z,21.31
2022-10-25T15:27:00.792Z,21.09
2022-10-25T15:29:45.489Z,20.94
2022-10-25T15:32:17.162Z,20.54
2022-10-25T15:34:48.685Z,20.58
2022-10-25T15:37:21.471Z,20.45
2022-10-25T15:39:52.515Z,20.35
2022-10-25T15:42:23.020Z,20.20
2022-10-25T15:44:56.337Z,20.06
2022-10-25T15:47:33.940Z,19.88
2022-10-25T15:50:05.690Z,19.75
2022-10-25T15:52:37.540Z,19.66
2022-10-25T15:55:13.725Z,19.63
2022-10-25T15:57:42.374Z,19.49
2022-10-25T16:00:22.799Z,19.47
2022-10-25T16:02:53.862Z,19.47
2022-10-25T16:05:32.089Z,19.45
2022-10-25T16:08:00.801Z,19.43
2022-10-25T16:10:34.833Z,19.37
2022-10-25T16:13:06.582Z,19.32
2022-10-25T16:15:36.834Z,19.26
2022-10-25T16:18:05.921Z,19.23
2022-10-25T16:20:34.668Z,19.08
2022-10-25T16:23:03.435Z,19.01
2022-10-25T16:25:33.148Z,19.00
2022-10-25T16:28:04.854Z,19.00
2022-10-25T16:30:35.852Z,18.94
2022-10-25T16:33:04.924Z,18.91
2022-10-25T16:35:35.112Z,18.90
2022-10-25T16:38:06.553Z,18.82
2022-10-25T16:40:35.538Z,18.75
2022-10-25T16:43:10.901Z,18.74
2022-10-25T16:45:42.632Z,18.71
2022-10-25T16:48:12.844Z,18.73
2022-10-25T16:51:16.760Z,18.73
2022-10-25T16:53:56.527Z,18.77
2022-10-25T16:57:11.883Z,18.75
2022-10-25T17:00:01.497Z,18.76
2022-10-25T17:02:32.741Z,18.77
2022-10-25T17:05:05.171Z,18.65
2022-10-25T17:07:42.010Z,18.65
2022-10-25T17:13:35.216Z,18.58
2022-10-25T17:16:08.705Z,18.04
2022-10-25T17:18:38.600Z,18.49
2022-10-25T17:21:10.070Z,18.45
2022-10-25T17:23:40.459Z,18.40
2022-10-25T17:26:11.605Z,18.33
2022-10-25T17:28:45.230Z,18.29
2022-10-25T17:31:16.227Z,18.26
2022-10-25T17:33:47.666Z,18.18
2022-10-25T17:36:18.615Z,18.18
2022-10-25T17:38:52.736Z,18.09
2022-10-25T17:41:22.815Z,18.01
2022-10-25T17:43:56.704Z,18.04
2022-10-25T17:46:29.131Z,18.03
2022-10-25T17:49:04.560Z,17.87
2022-10-25T17:51:34.721Z,17.65
2022-10-25T17:54:05.687Z,17.55
2022-10-25T17:56:37.270Z,17.41
2022-10-25T17:59:07.910Z,17.33
2022-10-25T18:01:50.724Z,17.21
2022-10-25T18:04:06.902Z,17.09
2022-10-25T18:06:38.696Z,17.07
2022-10-25T18:09:11.656Z,16.90
2022-10-25T18:11:40.326Z,16.77
2022-10-25T18:14:09.159Z,16.66
2022-10-25T18:16:38.700Z,16.58
2022-10-25T18:19:07.657Z,16.61
2022-10-25T18:21:37.907Z,16.60
2022-10-25T18:24:06.990Z,16.47
2022-10-25T18:26:37.879Z,17.05
2022-10-25T18:29:07.597Z,17.08
2022-10-25T18:31:37.116Z,17.36
2022-10-25T18:34:05.764Z,17.59
2022-10-25T18:36:34.361Z,17.62
2022-10-25T18:39:02.979Z,17.47
2022-10-25T18:41:35.326Z,17.52
2022-10-25T18:44:15.057Z,17.43
2022-10-25T18:46:44.140Z,17.44
2022-10-25T18:49:15.781Z,17.37
2022-10-25T18:51:51.678Z,17.36
2022-10-25T18:54:20.518Z,17.30
2022-10-25T18:57:03.819Z,17.15
2022-10-25T18:59:24.074Z,17.12
2022-10-25T19:01:53.158Z,16.98
2022-10-25T19:04:21.863Z,16.97
2022-10-25T19:06:53.798Z,16.93
2022-10-25T19:09:26.343Z,16.79
2022-10-25T19:11:55.276Z,16.74
2022-10-25T19:14:30.197Z,16.85
2022-10-25T19:16:58.865Z,16.83
2022-10-25T19:19:29.217Z,16.83
2022-10-25T19:21:58.723Z,16.87
2022-10-25T19:24:27.370Z,17.25
2022-10-25T19:26:57.975Z,17.06
2022-10-25T19:29:26.569Z,16.97
2022-10-25T19:31:57.977Z,16.75
2022-10-25T19:34:26.731Z,16.71
2022-10-25T19:36:56.750Z,16.68
2022-10-25T19:39:29.207Z,16.75
2022-10-25T19:41:57.791Z,16.52
2022-10-25T19:44:28.613Z,16.52
2022-10-25T19:46:58.761Z,16.67
2022-10-25T19:49:30.079Z,16.67
2022-10-25T19:51:58.755Z,16.51
2022-10-25T19:54:28.637Z,16.48
2022-10-25T19:56:57.210Z,16.44
2022-10-25T19:59:26.304Z,16.48
2022-10-25T20:01:55.121Z,16.48
2022-10-25T20:04:23.945Z,16.32
2022-10-25T20:06:52.969Z,16.34
2022-10-25T20:09:22.135Z,16.23
2022-10-25T20:11:53.127Z,16.19
2022-10-25T20:14:21.746Z,16.07
2022-10-25T20:16:50.763Z,16.24
2022-10-25T20:19:21.097Z,16.14
2022-10-25T20:21:51.753Z,16.07
2022-10-25T20:24:20.508Z,16.14
2022-10-25T20:26:53.955Z,15.99
2022-10-25T20:29:24.735Z,15.83
2022-10-25T20:31:54.140Z,16.03
2022-10-25T20:34:25.670Z,16.09
2022-10-25T20:36:54.325Z,15.96
2022-10-25T20:39:24.478Z,16.06
2022-10-25T20:41:55.671Z,15.91
2022-10-25T20:47:06.484Z,15.55
2022-10-25T20:49:44.179Z,16.01
2022-10-25T20:52:12.916Z,16.00
2022-10-25T20:54:41.589Z,16.25
2022-10-25T20:57:10.279Z,16.28
2022-10-25T20:59:40.998Z,16.26
2022-10-25T21:02:11.375Z,16.19
2022-10-25T21:04:53.439Z,16.11
2022-10-25T21:07:13.027Z,16.18
2022-10-25T21:09:50.622Z,16.00
2022-10-25T21:12:19.238Z,16.01
2022-10-25T21:14:47.753Z,16.00
2022-10-25T21:17:18.073Z,16.08
2022-10-25T21:19:49.609Z,16.07
2022-10-25T21:22:18.348Z,16.01
2022-10-25T21:24:48.617Z,16.16
2022-10-25T21:27:17.383Z,16.07
2022-10-25T21:29:46.145Z,16.03
2022-10-25T21:32:14.871Z,16.07
2022-10-25T21:34:43.526Z,16.10
2022-10-25T21:37:12.258Z,16.03
2022-10-25T21:39:42.314Z,15.99
2022-10-25T21:42:11.973Z,16.02
2022-10-25T21:44:40.988Z,15.95
2022-10-25T21:47:09.717Z,15.86
2022-10-25T21:49:38.446Z,15.85
2022-10-25T21:52:07.160Z,15.82
2022-10-25T21:54:35.826Z,15.76
2022-10-25T21:57:07.281Z,15.78
2022-10-25T21:59:35.877Z,15.77
2022-10-25T22:02:04.856Z,15.67
2022-10-25T22:04:34.189Z,15.58
2022-10-25T22:07:02.830Z,15.54
2022-10-25T22:09:33.103Z,15.49
2022-10-25T22:12:02.538Z,15.51
2022-10-25T22:14:31.167Z,15.47
2022-10-25T22:16:59.931Z,15.43
2022-10-25T22:19:31.225Z,15.48
2022-10-25T22:22:01.981Z,15.50
2022-10-25T22:24:30.509Z,15.27
2022-10-25T22:26:59.230Z,15.31
2022-10-25T22:29:27.965Z,15.30
2022-10-25T22:31:59.578Z,15.25
2022-10-25T22:34:29.282Z,15.17
2022-10-25T22:37:01.472Z,15.07
2022-10-25T22:39:33.220Z,14.92
2022-10-25T22:42:03.174Z,14.83
2022-10-25T22:44:31.689Z,14.73
2022-10-25T22:47:00.367Z,14.69
2022-10-25T22:49:31.588Z,14.74
2022-10-25T22:52:00.249Z,14.67
2022-10-25T22:54:30.656Z,14.61
2022-10-25T22:57:00.887Z,14.54
2022-10-25T22:59:29.420Z,14.57
2022-10-25T23:01:59.488Z,14.55
2022-10-25T23:04:29.352Z,14.46
2022-10-25T23:06:59.922Z,14.43
2022-10-25T23:09:28.664Z,14.52
2022-10-25T23:11:57.347Z,14.55
2022-10-25T23:14:26.043Z,14.45
2022-10-25T23:16:54.822Z,14.53
2022-10-25T23:19:23.514Z,14.57
2022-10-25T23:21:52.229Z,14.52
2022-10-25T23:24:20.907Z,14.71
2022-10-25T23:26:49.433Z,14.88
2022-10-25T23:29:18.071Z,14.85
2022-10-25T23:31:46.683Z,14.83
2022-10-25T23:34:15.307Z,14.80
2022-10-25T23:36:44.006Z,14.75
2022-10-25T23:39:12.670Z,14.70
2022-10-25T23:41:41.371Z,14.58
2022-10-25T23:44:10.054Z,14.54
2022-10-25T23:46:38.735Z,14.45
2022-10-25T23:49:08.827Z,14.47
2022-10-25T23:51:37.473Z,14.49
2022-10-25T23:54:07.713Z,14.48
2022-10-25T23:56:39.601Z,14.56
2022-10-25T23:59:08.289Z,14.56
